Time;durP1;ratioP1;P1;durP2;ratioP2;P2;SDS_P1;SDS_P2;PMS_P1;PMS_P2;Temp;Humidity;BMP_temperature;BMP_pressure;BME280_temperature;BME280_humidity;BME280_pressure;Samples;Min_cycle;Max_cycle;Signal;HPM_P1;HPM_P2
2023/09/24 00:02:10;;;;;;;4.55;3.28;;;;;;;;;;5069457;28;20032;-61
2023/09/24 00:04:36;;;;;;;7.30;3.60;;;;;;;;;;5069592;28;20154;-61
2023/09/24 00:07:02;;;;;;;8.05;3.53;;;;;;;;;;5068909;28;20459;-61
2023/09/24 00:09:28;;;;;;;5.70;3.83;;;;;;;;;;5069672;28;20483;-61
2023/09/24 00:11:54;;;;;;;6.40;3.72;;;;;;;;;;5069178;28;20040;-61
2023/09/24 00:14:20;;;;;;;4.80;3.33;;;;;;;;;;5051133;28;20040;-61
2023/09/24 00:16:46;;;;;;;7.57;3.83;;;;;;;;;;5061709;28;20037;-61
2023/09/24 00:19:13;;;;;;;8.30;3.60;;;;;;;;;;5055271;28;20261;-61
2023/09/24 00:21:39;;;;;;;6.25;3.83;;;;;;;;;;5069394;28;20036;-61
2023/09/24 00:24:06;;;;;;;6.30;3.95;;;;;;;;;;5068744;28;20051;-61
2023/09/24 00:26:32;;;;;;;7.05;3.80;;;;;;;;;;5054411;28;20128;-61
2023/09/24 00:28:58;;;;;;;5.80;3.45;;;;;;;;;;5069722;28;20044;-61
2023/09/24 00:31:25;;;;;;;6.00;3.65;;;;;;;;;;5068923;28;20044;-61
2023/09/24 00:33:54;;;;;;;6.60;3.33;;;;;;;;;;5069193;28;20094;-61
2023/09/24 00:36:20;;;;;;;6.35;3.80;;;;;;;;;;5068897;28;20111;-61
2023/09/24 00:38:47;;;;;;;5.50;3.53;;;;;;;;;;5068642;28;20576;-61
2023/09/24 00:41:14;;;;;;;3.95;3.00;;;;;;;;;;5069047;28;20079;-61
2023/09/24 00:43:40;;;;;;;5.88;3.33;;;;;;;;;;5069077;28;20490;-61
2023/09/24 00:46:09;;;;;;;5.43;3.25;;;;;;;;;;5068567;28;20045;-61
2023/09/24 00:48:36;;;;;;;4.32;2.72;;;;;;;;;;5068847;28;20040;-61
2023/09/24 00:51:03;;;;;;;3.63;2.67;;;;;;;;;;5068386;28;20299;-61
2023/09/24 00:53:30;;;;;;;4.95;2.97;;;;;;;;;;5068712;28;20124;-61
2023/09/24 00:55:56;;;;;;;4.72;3.35;;;;;;;;;;5068729;28;20163;-61
2023/09/24 00:58:30;;;;;;;5.93;3.13;;;;;;;;;;5069251;28;20506;-61
2023/09/24 01:00:59;;;;;;;5.10;3.50;;;;;;;;;;5068114;28;20115;-61
2023/09/24 01:03:26;;;;;;;4.43;3.15;;;;;;;;;;5068892;28;20037;-61
2023/09/24 01:05:52;;;;;;;5.55;3.55;;;;;;;;;;5068908;28;20456;-61
2023/09/24 01:08:19;;;;;;;10.57;3.55;;;;;;;;;;5070985;28;20049;-61
2023/09/24 01:10:49;;;;;;;5.22;3.80;;;;;;;;;;5072643;28;20056;-61
2023/09/24 01:13:15;;;;;;;8.48;3.90;;;;;;;;;;5072990;28;20124;-61
2023/09/24 01:15:45;;;;;;;6.82;3.83;;;;;;;;;;5071623;28;20126;-61
2023/09/24 01:18:12;;;;;;;6.60;4.75;;;;;;;;;;5053976;28;20037;-61
2023/09/24 01:20:40;;;;;;;6.30;4.35;;;;;;;;;;5067206;28;20032;-61
2023/09/24 01:23:08;;;;;;;7.25;4.43;;;;;;;;;;5071994;28;20040;-61
2023/09/24 01:25:35;;;;;;;6.30;3.83;;;;;;;;;;5065587;28;20107;-61
2023/09/24 01:28:03;;;;;;;7.53;4.80;;;;;;;;;;5062154;28;20055;-61
2023/09/24 01:30:29;;;;;;;7.88;4.57;;;;;;;;;;5072171;28;20446;-61
2023/09/24 01:32:57;;;;;;;6.88;5.43;;;;;;;;;;5072037;28;20036;-61
2023/09/24 01:35:27;;;;;;;8.43;6.00;;;;;;;;;;5072017;28;20059;-61
2023/09/24 01:37:54;;;;;;;8.32;5.30;;;;;;;;;;5071519;28;20098;-61
2023/09/24 01:40:21;;;;;;;6.35;5.63;;;;;;;;;;5072135;28;20102;-61
2023/09/24 01:42:48;;;;;;;10.18;6.07;;;;;;;;;;5054123;28;20083;-61
2023/09/24 01:45:16;;;;;;;14.27;6.72;;;;;;;;;;5071608;28;20047;-61
2023/09/24 01:47:44;;;;;;;10.23;6.53;;;;;;;;;;5053862;28;20506;-61
2023/09/24 01:50:10;;;;;;;9.23;6.90;;;;;;;;;;5071826;28;20163;-61
2023/09/24 01:52:37;;;;;;;14.15;7.78;;;;;;;;;;5071013;28;20459;-61
2023/09/24 01:55:03;;;;;;;9.20;7.30;;;;;;;;;;5071258;28;20084;-61
2023/09/24 01:57:29;;;;;;;10.25;7.22;;;;;;;;;;5071863;28;20040;-61
2023/09/24 02:00:04;;;;;;;11.90;7.57;;;;;;;;;;5071409;28;20115;-61
2023/09/24 02:02:33;;;;;;;10.45;7.32;;;;;;;;;;5071619;28;20041;-61
2023/09/24 02:04:59;;;;;;;8.98;7.18;;;;;;;;;;5071565;28;20080;-61
2023/09/24 02:07:27;;;;;;;11.13;7.57;;;;;;;;;;5070980;28;20082;-61
2023/09/24 02:09:53;;;;;;;11.00;7.60;;;;;;;;;;5071893;28;20115;-61
2023/09/24 02:12:19;;;;;;;9.23;7.40;;;;;;;;;;5053296;28;20526;-61
2023/09/24 02:14:45;;;;;;;10.68;7.13;;;;;;;;;;5070899;28;20487;-61
2023/09/24 02:17:11;;;;;;;9.75;7.13;;;;;;;;;;5060705;28;20033;-61
2023/09/24 02:19:37;;;;;;;7.80;6.20;;;;;;;;;;5055003;28;20047;-61
2023/09/24 02:22:03;;;;;;;9.35;7.15;;;;;;;;;;5070967;28;20066;-61
2023/09/24 02:24:29;;;;;;;7.43;6.45;;;;;;;;;;5071177;28;20101;-61
2023/09/24 02:26:55;;;;;;;10.82;6.85;;;;;;;;;;5053298;28;20044;-61
2023/09/24 02:29:21;;;;;;;11.57;7.25;;;;;;;;;;5069882;28;20052;-61
2023/09/24 02:31:52;;;;;;;12.85;7.10;;;;;;;;;;5052969;28;20045;-61
2023/09/24 02:34:18;;;;;;;9.20;6.95;;;;;;;;;;5071146;28;20182;-61
2023/09/24 02:36:44;;;;;;;8.95;6.53;;;;;;;;;;5053357;28;20527;-61
2023/09/24 02:39:10;;;;;;;9.82;7.50;;;;;;;;;;5070990;28;20391;-61
2023/09/24 02:41:36;;;;;;;11.13;6.82;;;;;;;;;;5070589;28;20032;-61
2023/09/24 02:44:03;;;;;;;9.77;6.78;;;;;;;;;;5070543;28;20044;-61
2023/09/24 02:46:31;;;;;;;10.23;6.65;;;;;;;;;;5070909;28;20041;-61
2023/09/24 02:48:57;;;;;;;10.35;6.50;;;;;;;;;;5070947;28;20055;-61
2023/09/24 02:51:23;;;;;;;7.55;6.57;;;;;;;;;;5069838;28;20499;-61
2023/09/24 02:53:50;;;;;;;7.20;6.20;;;;;;;;;;5070868;28;20451;-61
2023/09/24 02:56:17;;;;;;;6.78;6.07;;;;;;;;;;5070254;28;20040;-61
2023/09/24 02:58:43;;;;;;;7.75;6.20;;;;;;;;;;5049361;28;20059;-61
2023/09/24 03:01:16;;;;;;;8.23;6.35;;;;;;;;;;5066897;28;20487;-61
2023/09/24 03:03:42;;;;;;;7.47;5.82;;;;;;;;;;5070402;28;20124;-61
2023/09/24 03:06:09;;;;;;;9.25;5.72;;;;;;;;;;5070225;28;20036;-61
2023/09/24 03:08:35;;;;;;;7.93;5.45;;;;;;;;;;5070095;28;20384;-61
2023/09/24 03:11:01;;;;;;;7.65;5.30;;;;;;;;;;5070660;28;20063;-61
2023/09/24 03:13:27;;;;;;;8.02;5.55;;;;;;;;;;5069382;28;20044;-61
2023/09/24 03:15:53;;;;;;;9.70;5.55;;;;;;;;;;5070109;28;20062;-61
2023/09/24 03:18:19;;;;;;;8.82;5.78;;;;;;;;;;5050754;28;20072;-61
2023/09/24 03:20:45;;;;;;;8.18;5.30;;;;;;;;;;5062388;28;20048;-61
2023/09/24 03:23:12;;;;;;;9.00;5.47;;;;;;;;;;5070159;28;20093;-61
2023/09/24 03:25:40;;;;;;;10.40;5.47;;;;;;;;;;5062281;28;20492;-61
2023/09/24 03:28:06;;;;;;;8.23;5.40;;;;;;;;;;5056457;28;20044;-61
2023/09/24 03:30:32;;;;;;;6.05;4.55;;;;;;;;;;5069767;28;20040;-61
2023/09/24 03:32:58;;;;;;;6.90;5.40;;;;;;;;;;5069853;28;20044;-61
2023/09/24 03:35:25;;;;;;;10.07;5.45;;;;;;;;;;5069399;28;20125;-61
2023/09/24 03:37:52;;;;;;;8.05;5.03;;;;;;;;;;5070107;28;20403;-61
2023/09/24 03:40:19;;;;;;;10.73;5.32;;;;;;;;;;5066126;28;20041;-61
2023/09/24 03:42:45;;;;;;;6.43;5.30;;;;;;;;;;5049325;28;20124;-61
2023/09/24 03:45:13;;;;;;;9.80;5.60;;;;;;;;;;5064990;28;20102;-61
2023/09/24 03:47:39;;;;;;;8.38;5.40;;;;;;;;;;5069323;28;20036;-61
2023/09/24 03:50:06;;;;;;;8.32;5.35;;;;;;;;;;5069322;28;20095;-61
2023/09/24 03:52:32;;;;;;;11.85;5.82;;;;;;;;;;5051459;28;20553;-61
2023/09/24 03:55:02;;;;;;;8.07;5.32;;;;;;;;;;5069688;28;20052;-61
2023/09/24 03:57:28;;;;;;;7.30;5.47;;;;;;;;;;5069076;28;20115;-61
2023/09/24 03:59:55;;;;;;;8.43;5.30;;;;;;;;;;5069694;28;20436;-61
2023/09/24 04:02:21;;;;;;;9.25;5.30;;;;;;;;;;5069548;28;20044;-61
2023/09/24 04:04:47;;;;;;;9.90;5.72;;;;;;;;;;5068863;28;20069;-61
2023/09/24 04:07:15;;;;;;;6.32;4.70;;;;;;;;;;5069473;28;20049;-61
2023/09/24 04:09:41;;;;;;;8.63;5.90;;;;;;;;;;5069229;28;20047;-61
2023/09/24 04:12:08;;;;;;;8.55;5.20;;;;;;;;;;5050776;28;20048;-61
2023/09/24 04:14:34;;;;;;;10.07;5.55;;;;;;;;;;5069342;28;20102;-61
2023/09/24 04:17:00;;;;;;;8.55;5.10;;;;;;;;;;5042515;28;20028;-61
2023/09/24 04:19:26;;;;;;;8.05;5.47;;;;;;;;;;5049118;28;20462;-61
2023/09/24 04:21:52;;;;;;;9.27;5.80;;;;;;;;;;5068956;28;20484;-61
2023/09/24 04:24:19;;;;;;;11.75;6.03;;;;;;;;;;5062835;28;20459;-61
2023/09/24 04:26:46;;;;;;;9.35;5.95;;;;;;;;;;5045868;28;20044;-61
2023/09/24 04:29:12;;;;;;;9.02;5.53;;;;;;;;;;5063623;28;20446;-61
2023/09/24 04:31:38;;;;;;;7.32;5.50;;;;;;;;;;5069065;28;20044;-61
2023/09/24 04:34:04;;;;;;;12.45;5.93;;;;;;;;;;5050620;28;20048;-61
2023/09/24 04:36:30;;;;;;;13.15;5.85;;;;;;;;;;5041047;28;20099;-61
2023/09/24 04:38:56;;;;;;;8.43;6.15;;;;;;;;;;5046193;28;20045;-61
2023/09/24 04:41:22;;;;;;;9.98;6.50;;;;;;;;;;5064063;28;20429;-61
2023/09/24 04:43:48;;;;;;;13.57;6.63;;;;;;;;;;5072405;28;20041;-61
2023/09/24 04:46:14;;;;;;;11.75;6.78;;;;;;;;;;5073235;28;20055;-61
2023/09/24 04:48:40;;;;;;;11.35;6.40;;;;;;;;;;5072382;28;20518;-61
2023/09/24 04:51:06;;;;;;;14.10;7.13;;;;;;;;;;5072855;28;20085;-61
2023/09/24 04:53:33;;;;;;;10.98;6.28;;;;;;;;;;5054681;28;20083;-61
2023/09/24 04:55:59;;;;;;;11.32;6.30;;;;;;;;;;5072434;28;20050;-61
2023/09/24 04:58:25;;;;;;;8.93;6.60;;;;;;;;;;5072990;28;20097;-61
2023/09/24 05:00:51;;;;;;;12.27;6.28;;;;;;;;;;5072873;28;20043;-61
2023/09/24 05:03:17;;;;;;;11.98;6.55;;;;;;;;;;5072481;28;20671;-61
2023/09/24 05:05:43;;;;;;;12.95;6.43;;;;;;;;;;5072342;28;20376;-61
2023/09/24 05:08:10;;;;;;;14.00;7.20;;;;;;;;;;5054578;28;20055;-61
2023/09/24 05:10:36;;;;;;;11.90;6.82;;;;;;;;;;5072468;28;20087;-61
2023/09/24 05:13:03;;;;;;;12.65;7.03;;;;;;;;;;5072504;28;20037;-61
2023/09/24 05:15:29;;;;;;;11.27;7.07;;;;;;;;;;5054544;28;20059;-61
2023/09/24 05:17:56;;;;;;;11.18;7.00;;;;;;;;;;5047274;28;20686;-61
2023/09/24 05:20:22;;;;;;;14.57;7.30;;;;;;;;;;5058246;28;20407;-61
2023/09/24 05:22:48;;;;;;;14.75;7.88;;;;;;;;;;5072276;28;20040;-61
2023/09/24 05:25:14;;;;;;;16.77;7.25;;;;;;;;;;5067699;28;20047;-61
2023/09/24 05:27:40;;;;;;;11.23;7.57;;;;;;;;;;5052446;28;20498;-61
2023/09/24 05:30:07;;;;;;;11.38;7.25;;;;;;;;;;5072342;28;20447;-61
2023/09/24 05:32:34;;;;;;;12.93;8.25;;;;;;;;;;5072040;28;20051;-61
2023/09/24 05:35:00;;;;;;;12.13;7.60;;;;;;;;;;5072139;28;20063;-61
2023/09/24 05:37:26;;;;;;;18.58;7.65;;;;;;;;;;5071919;28;20037;-61
2023/09/24 05:39:52;;;;;;;15.35;8.25;;;;;;;;;;5072059;28;20101;-61
2023/09/24 05:42:18;;;;;;;16.92;8.93;;;;;;;;;;5071554;28;20064;-61
2023/09/24 05:44:44;;;;;;;12.65;8.18;;;;;;;;;;5071693;28;20040;-61
2023/09/24 05:47:11;;;;;;;12.65;9.10;;;;;;;;;;5072236;28;20445;-61
2023/09/24 05:49:37;;;;;;;10.98;8.07;;;;;;;;;;5071393;28;20052;-61
2023/09/24 05:52:03;;;;;;;12.38;8.15;;;;;;;;;;5071613;28;20088;-61
2023/09/24 05:54:29;;;;;;;16.15;9.40;;;;;;;;;;5071468;28;20048;-61
2023/09/24 05:56:55;;;;;;;13.45;8.55;;;;;;;;;;5071474;28;20067;-61
2023/09/24 05:59:21;;;;;;;12.18;8.40;;;;;;;;;;5071856;28;20514;-61
2023/09/24 06:01:47;;;;;;;16.42;8.40;;;;;;;;;;5071768;28;20136;-61
2023/09/24 06:04:13;;;;;;;13.95;8.93;;;;;;;;;;5070906;28;20135;-61
2023/09/24 06:06:41;;;;;;;15.07;8.68;;;;;;;;;;5071466;28;20044;-61
2023/09/24 06:09:09;;;;;;;14.93;9.18;;;;;;;;;;5071315;28;20076;-61
2023/09/24 06:11:37;;;;;;;15.70;9.00;;;;;;;;;;5071389;28;20048;-61
2023/09/24 06:14:08;;;;;;;16.88;8.45;;;;;;;;;;5071152;28;20145;-61
2023/09/24 06:16:37;;;;;;;13.45;8.80;;;;;;;;;;5066097;28;20048;-61
2023/09/24 06:19:04;;;;;;;14.40;8.63;;;;;;;;;;5051415;28;20052;-61
2023/09/24 06:21:31;;;;;;;15.73;9.20;;;;;;;;;;5064566;28;20036;-61
2023/09/24 06:23:57;;;;;;;15.60;9.73;;;;;;;;;;5071048;28;20044;-61
2023/09/24 06:26:24;;;;;;;15.77;9.18;;;;;;;;;;5057317;28;20049;-61
2023/09/24 06:28:50;;;;;;;20.15;9.63;;;;;;;;;;5058866;28;20083;-61
2023/09/24 06:31:16;;;;;;;18.55;10.00;;;;;;;;;;5053490;28;20533;-61
2023/09/24 06:33:42;;;;;;;17.90;9.73;;;;;;;;;;5052619;28;20040;-61
2023/09/24 06:36:09;;;;;;;17.63;10.02;;;;;;;;;;5071107;28;20033;-61
2023/09/24 06:38:36;;;;;;;22.48;10.88;;;;;;;;;;5071007;28;20479;-61
2023/09/24 06:41:03;;;;;;;19.65;10.63;;;;;;;;;;5070375;28;20275;-61
2023/09/24 06:43:33;;;;;;;16.20;9.63;;;;;;;;;;5070576;28;20028;-61
2023/09/24 06:46:01;;;;;;;17.60;10.43;;;;;;;;;;5070862;28;20044;-61
2023/09/24 06:48:27;;;;;;;15.63;10.73;;;;;;;;;;5070157;28;20048;-61
2023/09/24 06:50:53;;;;;;;17.15;10.15;;;;;;;;;;5070820;28;20068;-61
2023/09/24 06:53:20;;;;;;;17.10;9.77;;;;;;;;;;5070216;28;20075;-61
2023/09/24 06:55:46;;;;;;;15.70;9.82;;;;;;;;;;5052349;28;20041;-61
2023/09/24 06:58:12;;;;;;;19.20;10.30;;;;;;;;;;5070493;28;20124;-61
2023/09/24 07:00:38;;;;;;;15.82;10.20;;;;;;;;;;5070573;28;20387;-61
2023/09/24 07:03:05;;;;;;;14.77;10.75;;;;;;;;;;5070120;28;20044;-61
2023/09/24 07:05:31;;;;;;;17.83;9.57;;;;;;;;;;5069623;28;20145;-61
2023/09/24 07:07:57;;;;;;;19.30;10.60;;;;;;;;;;5070225;28;20056;-61
2023/09/24 07:10:24;;;;;;;17.45;11.25;;;;;;;;;;5049688;28;20094;-61
2023/09/24 07:12:51;;;;;;;16.27;10.70;;;;;;;;;;5055999;28;20036;-61
2023/09/24 07:15:17;;;;;;;18.58;10.60;;;;;;;;;;5069997;28;20044;-61
2023/09/24 07:17:43;;;;;;;17.42;9.70;;;;;;;;;;5068493;28;20076;-61
2023/09/24 07:20:10;;;;;;;19.98;10.68;;;;;;;;;;5070260;28;20044;-61
2023/09/24 07:22:37;;;;;;;16.83;10.77;;;;;;;;;;5070262;28;20502;-61
2023/09/24 07:25:04;;;;;;;21.52;10.45;;;;;;;;;;5066689;28;20048;-61
2023/09/24 07:27:30;;;;;;;18.42;10.55;;;;;;;;;;5032145;28;20045;-61
2023/09/24 07:29:56;;;;;;;21.23;11.30;;;;;;;;;;5050142;28;20067;-61
2023/09/24 07:32:22;;;;;;;20.17;10.23;;;;;;;;;;5051659;28;20407;-61
2023/09/24 07:34:48;;;;;;;18.38;11.60;;;;;;;;;;5069884;28;20622;-61
2023/09/24 07:37:15;;;;;;;19.25;11.55;;;;;;;;;;5051942;28;20036;-61
2023/09/24 07:39:41;;;;;;;17.52;10.65;;;;;;;;;;5069232;28;20380;-61
2023/09/24 07:42:07;;;;;;;16.95;10.60;;;;;;;;;;5069872;28;20123;-61
2023/09/24 07:44:33;;;;;;;18.63;11.00;;;;;;;;;;5069452;28;20486;-61
2023/09/24 07:46:59;;;;;;;17.33;10.15;;;;;;;;;;5069957;28;20127;-61
2023/09/24 07:49:25;;;;;;;18.52;10.18;;;;;;;;;;5069767;28;20041;-61
2023/09/24 07:51:51;;;;;;;17.55;10.15;;;;;;;;;;5069502;28;20533;-61
2023/09/24 07:54:17;;;;;;;18.35;9.70;;;;;;;;;;5068734;28;20056;-61
2023/09/24 07:56:43;;;;;;;15.63;9.35;;;;;;;;;;5070015;28;20048;-61
2023/09/24 07:59:10;;;;;;;17.17;10.20;;;;;;;;;;5069637;28;20048;-61
2023/09/24 08:01:36;;;;;;;19.85;10.60;;;;;;;;;;5069190;28;20414;-61
2023/09/24 08:04:03;;;;;;;26.65;12.35;;;;;;;;;;5069475;28;20437;-61
2023/09/24 08:06:29;;;;;;;18.05;10.27;;;;;;;;;;5069538;28;20123;-61
2023/09/24 08:08:56;;;;;;;17.02;10.07;;;;;;;;;;5068739;28;20036;-61
2023/09/24 08:11:22;;;;;;;20.05;11.77;;;;;;;;;;5069750;28;20043;-61
2023/09/24 08:13:49;;;;;;;16.23;9.43;;;;;;;;;;5068943;28;20043;-61
2023/09/24 08:16:15;;;;;;;19.10;9.57;;;;;;;;;;5066620;28;20435;-61
2023/09/24 08:18:41;;;;;;;16.25;8.95;;;;;;;;;;5068985;28;20071;-61
2023/09/24 08:21:08;;;;;;;17.60;9.55;;;;;;;;;;5069415;28;20044;-61
2023/09/24 08:23:34;;;;;;;14.80;9.45;;;;;;;;;;5068959;28;20052;-61
2023/09/24 08:26:00;;;;;;;14.77;8.52;;;;;;;;;;5060352;28;20439;-61
2023/09/24 08:28:26;;;;;;;15.20;8.25;;;;;;;;;;5069299;28;20420;-61
2023/09/24 08:30:52;;;;;;;14.02;8.63;;;;;;;;;;5068863;28;20529;-61
2023/09/24 08:33:18;;;;;;;18.58;9.57;;;;;;;;;;5069287;28;20067;-61
2023/09/24 08:35:44;;;;;;;11.45;8.35;;;;;;;;;;5068882;28;20113;-61
2023/09/24 08:38:10;;;;;;;17.77;8.82;;;;;;;;;;5068730;28;20044;-62
2023/09/24 08:40:39;;;;;;;18.10;9.35;;;;;;;;;;5068492;28;20483;-62
2023/09/24 08:43:09;;;;;;;11.15;6.88;;;;;;;;;;5069355;28;20174;-61
2023/09/24 08:45:36;;;;;;;19.17;7.95;;;;;;;;;;5068359;28;20080;-61
2023/09/24 08:48:07;;;;;;;12.45;7.53;;;;;;;;;;5069344;28;20062;-61
2023/09/24 08:50:33;;;;;;;15.52;7.15;;;;;;;;;;5052866;28;20391;-61
2023/09/24 08:53:01;;;;;;;16.48;7.95;;;;;;;;;;5052936;28;20052;-61
2023/09/24 08:55:27;;;;;;;16.00;7.90;;;;;;;;;;5068835;28;20077;-61
2023/09/24 08:57:53;;;;;;;18.65;8.68;;;;;;;;;;5069125;28;20249;-61
2023/09/24 09:00:19;;;;;;;15.68;7.68;;;;;;;;;;5068650;28;20068;-61
2023/09/24 09:02:45;;;;;;;18.15;7.22;;;;;;;;;;5068922;28;20040;-61
2023/09/24 09:05:12;;;;;;;10.93;6.85;;;;;;;;;;5068346;28;20052;-61
2023/09/24 09:07:58;;;;;;;14.20;7.07;;;;;;;;;;5068776;28;20048;-61
2023/09/24 09:10:25;;;;;;;14.10;6.40;;;;;;;;;;5054979;28;20048;-61
2023/09/24 09:12:51;;;;;;;13.88;7.05;;;;;;;;;;5051758;28;20044;-61
2023/09/24 09:15:17;;;;;;;15.15;6.68;;;;;;;;;;5068152;28;20048;-61
2023/09/24 09:17:43;;;;;;;10.73;6.47;;;;;;;;;;5064182;28;20062;-61
2023/09/24 09:20:09;;;;;;;12.07;6.43;;;;;;;;;;5068754;28;20042;-61
2023/09/24 09:22:36;;;;;;;13.30;6.80;;;;;;;;;;5068267;28;20044;-61
2023/09/24 09:25:06;;;;;;;18.75;8.02;;;;;;;;;;5062980;28;20071;-61
2023/09/24 09:27:36;;;;;;;12.85;6.40;;;;;;;;;;5029074;28;20116;-61
2023/09/24 09:30:15;;;;;;;13.88;6.30;;;;;;;;;;5056383;28;20395;-61
2023/09/24 09:32:50;;;;;;;10.57;6.65;;;;;;;;;;5072302;28;20083;-61
2023/09/24 09:35:16;;;;;;;14.48;6.93;;;;;;;;;;5071971;28;20052;-61
2023/09/24 09:37:43;;;;;;;12.63;5.95;;;;;;;;;;5071850;28;20411;-61
2023/09/24 09:40:11;;;;;;;13.65;6.57;;;;;;;;;;5071758;28;20044;-61
2023/09/24 09:42:38;;;;;;;12.48;5.75;;;;;;;;;;5072008;28;20043;-61
2023/09/24 09:45:08;;;;;;;7.93;5.35;;;;;;;;;;5071386;28;20094;-61
2023/09/24 09:47:37;;;;;;;8.40;4.10;;;;;;;;;;5072326;28;20053;-61
2023/09/24 09:50:04;;;;;;;10.25;4.68;;;;;;;;;;5071565;28;20495;-61
2023/09/24 09:52:35;;;;;;;11.77;4.63;;;;;;;;;;5071606;28;20425;-61
2023/09/24 09:55:06;;;;;;;12.50;4.60;;;;;;;;;;5071357;28;20522;-61
2023/09/24 09:57:34;;;;;;;14.15;4.78;;;;;;;;;;5071684;28;20058;-61
2023/09/24 10:00:10;;;;;;;7.03;4.18;;;;;;;;;;5071313;28;20076;-61
2023/09/24 10:02:37;;;;;;;11.70;4.05;;;;;;;;;;5071509;28;20048;-61
2023/09/24 10:05:03;;;;;;;7.30;3.72;;;;;;;;;;5071607;28;20101;-61
2023/09/24 10:07:29;;;;;;;6.57;3.70;;;;;;;;;;5071473;28;20457;-61
2023/09/24 10:09:55;;;;;;;8.57;4.05;;;;;;;;;;5053424;28;20112;-61
2023/09/24 10:12:35;;;;;;;9.70;4.18;;;;;;;;;;5071943;28;20048;-61
2023/09/24 10:15:21;;;;;;;8.00;3.17;;;;;;;;;;5070777;28;20382;-61
2023/09/24 10:17:50;;;;;;;7.05;3.17;;;;;;;;;;5064662;28;20033;-61
2023/09/24 10:20:18;;;;;;;8.55;2.95;;;;;;;;;;5071836;28;20119;-61
2023/09/24 10:22:45;;;;;;;10.93;3.45;;;;;;;;;;5071287;28;20120;-61
2023/09/24 10:25:30;;;;;;;7.10;3.40;;;;;;;;;;5067219;28;20463;-62
2023/09/24 10:28:04;;;;;;;10.27;3.13;;;;;;;;;;5051577;28;20043;-62
2023/09/24 10:30:50;;;;;;;8.65;2.63;;;;;;;;;;5065014;28;20422;-62
2023/09/24 10:33:36;;;;;;;7.45;3.03;;;;;;;;;;5071076;28;20052;-62
2023/09/24 10:36:22;;;;;;;7.38;2.88;;;;;;;;;;5052380;28;20052;-62
2023/09/24 10:39:05;;;;;;;6.97;2.20;;;;;;;;;;5070997;28;20093;-62
2023/09/24 10:41:32;;;;;;;6.97;2.28;;;;;;;;;;5070005;28;20552;-62
2023/09/24 10:44:17;;;;;;;5.78;2.30;;;;;;;;;;5070581;28;20083;-62
2023/09/24 10:46:43;;;;;;;5.40;2.38;;;;;;;;;;5070317;28;20036;-62
2023/09/24 10:49:09;;;;;;;7.93;2.67;;;;;;;;;;5052876;28;20044;-62
2023/09/24 10:51:35;;;;;;;6.70;2.30;;;;;;;;;;5070041;28;20452;-62
2023/09/24 10:54:11;;;;;;;8.63;1.95;;;;;;;;;;5070613;28;20072;-62
2023/09/24 10:56:37;;;;;;;5.32;2.08;;;;;;;;;;5070543;28;20406;-62
2023/09/24 10:59:03;;;;;;;5.93;2.00;;;;;;;;;;5070611;28;20044;-62
2023/09/24 11:01:30;;;;;;;7.07;2.05;;;;;;;;;;5070446;28;20044;-62
2023/09/24 11:03:56;;;;;;;5.32;1.88;;;;;;;;;;5070682;28;20055;-62
2023/09/24 11:06:31;;;;;;;4.90;1.70;;;;;;;;;;5069821;28;20502;-62
2023/09/24 11:09:16;;;;;;;6.57;2.10;;;;;;;;;;5070277;28;20040;-62
2023/09/24 11:11:43;;;;;;;9.07;1.90;;;;;;;;;;5070324;28;20040;-62
2023/09/24 11:14:25;;;;;;;5.22;1.52;;;;;;;;;;5069772;28;20036;-62
2023/09/24 11:16:51;;;;;;;8.20;1.90;;;;;;;;;;5062601;28;20155;-62
2023/09/24 11:19:37;;;;;;;5.60;1.52;;;;;;;;;;5069620;28;20044;-62
2023/09/24 11:22:24;;;;;;;5.32;1.63;;;;;;;;;;5064669;28;20041;-62
2023/09/24 11:25:05;;;;;;;6.95;1.70;;;;;;;;;;5049005;28;20442;-62
2023/09/24 11:27:35;;;;;;;5.15;1.70;;;;;;;;;;5030807;28;20067;-62
2023/09/24 11:30:02;;;;;;;3.58;1.70;;;;;;;;;;5046795;28;20071;-62
2023/09/24 11:32:28;;;;;;;5.03;1.50;;;;;;;;;;5069924;28;20047;-62
2023/09/24 11:35:07;;;;;;;3.88;1.38;;;;;;;;;;5069547;28;20048;-62
2023/09/24 11:37:46;;;;;;;3.55;1.33;;;;;;;;;;5069446;28;20045;-62
2023/09/24 11:40:21;;;;;;;3.50;1.50;;;;;;;;;;5069849;28;20032;-62
2023/09/24 11:42:56;;;;;;;4.38;1.55;;;;;;;;;;5051349;28;20041;-62
2023/09/24 11:45:39;;;;;;;4.25;1.40;;;;;;;;;;5069415;28;20044;-62
2023/09/24 11:48:05;;;;;;;;;;;;;;;;;;5070451;28;20426;-62
2023/09/24 11:50:31;;;;;;;5.82;1.50;;;;;;;;;;5068822;28;19935;-62
2023/09/24 11:52:57;;;;;;;2.75;1.38;;;;;;;;;;5069772;28;20485;-62
2023/09/24 11:55:23;;;;;;;6.68;2.15;;;;;;;;;;5069205;28;20080;-62
2023/09/24 11:57:48;;;;;;;3.95;1.40;;;;;;;;;;5068947;28;20123;-62
2023/09/24 12:00:15;;;;;;;4.00;1.55;;;;;;;;;;5069614;28;20045;-62
2023/09/24 12:02:41;;;;;;;6.60;1.70;;;;;;;;;;5069474;28;20040;-62
2023/09/24 12:05:07;;;;;;;4.05;1.48;;;;;;;;;;5068845;28;20040;-62
2023/09/24 12:07:33;;;;;;;7.15;1.48;;;;;;;;;;5069633;28;20044;-62
2023/09/24 12:10:01;;;;;;;7.20;1.40;;;;;;;;;;5069355;28;20043;-62
2023/09/24 12:12:27;;;;;;;4.45;1.60;;;;;;;;;;5069276;28;20048;-62
2023/09/24 12:14:53;;;;;;;5.35;1.48;;;;;;;;;;5069243;28;20128;-62
2023/09/24 12:17:19;;;;;;;7.05;1.60;;;;;;;;;;5058958;28;20127;-62
2023/09/24 12:19:48;;;;;;;4.97;1.40;;;;;;;;;;5069185;28;20032;-62
2023/09/24 12:22:15;;;;;;;6.93;1.52;;;;;;;;;;5069029;28;20044;-62
2023/09/24 12:24:41;;;;;;;6.28;1.67;;;;;;;;;;5069387;28;20044;-62
2023/09/24 12:27:07;;;;;;;4.97;1.60;;;;;;;;;;5049027;28;20408;-62
2023/09/24 12:29:34;;;;;;;4.80;1.52;;;;;;;;;;5052101;28;20075;-62
2023/09/24 12:31:59;;;;;;;5.43;1.35;;;;;;;;;;5069216;28;20048;-62
2023/09/24 12:34:25;;;;;;;5.40;1.20;;;;;;;;;;5068463;28;20048;-62
2023/09/24 12:36:51;;;;;;;4.80;1.50;;;;;;;;;;5069210;28;20467;-62
2023/09/24 12:39:20;;;;;;;3.78;1.20;;;;;;;;;;5069211;28;20068;-62
2023/09/24 12:41:47;;;;;;;3.13;1.30;;;;;;;;;;5068716;28;20076;-62
2023/09/24 12:44:13;;;;;;;5.90;1.20;;;;;;;;;;5069008;28;20037;-62
2023/09/24 12:46:39;;;;;;;4.40;2.28;;;;;;;;;;5068900;28;20037;-62
2023/09/24 12:49:05;;;;;;;7.43;1.85;;;;;;;;;;5069243;28;20430;-62
2023/09/24 12:51:31;;;;;;;4.07;1.50;;;;;;;;;;5068004;28;20356;-62
2023/09/24 12:53:57;;;;;;;5.93;1.60;;;;;;;;;;5068966;28;20040;-62
2023/09/24 12:56:23;;;;;;;3.97;1.30;;;;;;;;;;5068627;28;20044;-62
2023/09/24 12:58:51;;;;;;;3.88;1.48;;;;;;;;;;5068598;28;20036;-62
2023/09/24 13:01:20;;;;;;;4.65;1.67;;;;;;;;;;5068929;28;20036;-62
2023/09/24 13:03:46;;;;;;;3.70;1.20;;;;;;;;;;5070880;28;20540;-63
2023/09/24 13:06:19;;;;;;;2.65;1.08;;;;;;;;;;5072167;28;20372;-63
2023/09/24 13:08:45;;;;;;;2.90;1.40;;;;;;;;;;5072705;28;20036;-63
2023/09/24 13:11:16;;;;;;;4.65;1.45;;;;;;;;;;5072826;28;20044;-63
2023/09/24 13:13:42;;;;;;;3.93;1.47;;;;;;;;;;5072429;28;20449;-63
2023/09/24 13:16:09;;;;;;;4.70;1.20;;;;;;;;;;5070547;28;20049;-63
2023/09/24 13:18:35;;;;;;;4.10;1.33;;;;;;;;;;5062704;28;20040;-63
2023/09/24 13:21:01;;;;;;;3.30;1.25;;;;;;;;;;5071835;28;20041;-63
2023/09/24 13:23:26;;;;;;;2.63;0.90;;;;;;;;;;5072460;28;20044;-63
2023/09/24 13:25:54;;;;;;;2.90;1.00;;;;;;;;;;5066591;28;20032;-63
2023/09/24 13:28:19;;;;;;;4.50;1.20;;;;;;;;;;5072244;28;20047;-63
2023/09/24 13:30:45;;;;;;;2.20;1.20;;;;;;;;;;5071942;28;20414;-63
2023/09/24 13:33:12;;;;;;;5.30;1.75;;;;;;;;;;5072390;28;20052;-63
2023/09/24 13:35:38;;;;;;;2.47;1.23;;;;;;;;;;5071397;28;20045;-63
2023/09/24 13:38:04;;;;;;;3.55;1.35;;;;;;;;;;5072243;28;20071;-63
2023/09/24 13:40:31;;;;;;;4.57;1.20;;;;;;;;;;5072405;28;20522;-63
2023/09/24 13:42:59;;;;;;;5.43;1.40;;;;;;;;;;5071316;28;20048;-63
2023/09/24 13:45:25;;;;;;;4.45;1.10;;;;;;;;;;5071832;28;20076;-63
2023/09/24 13:47:51;;;;;;;6.35;1.20;;;;;;;;;;5071806;28;20498;-63
2023/09/24 13:50:17;;;;;;;6.07;1.35;;;;;;;;;;5071334;28;20045;-63
2023/09/24 13:52:43;;;;;;;2.17;0.90;;;;;;;;;;5071895;28;20124;-63
2023/09/24 13:55:11;;;;;;;2.80;1.17;;;;;;;;;;5071802;28;20045;-63
2023/09/24 13:57:37;;;;;;;4.60;1.23;;;;;;;;;;5071232;28;20085;-63
2023/09/24 14:00:03;;;;;;;3.50;1.02;;;;;;;;;;5071843;28;20040;-63
2023/09/24 14:02:29;;;;;;;4.75;1.13;;;;;;;;;;5071381;28;20041;-63
2023/09/24 14:04:56;;;;;;;4.47;1.10;;;;;;;;;;5071477;28;20469;-63
2023/09/24 14:07:22;;;;;;;4.43;1.23;;;;;;;;;;5071213;28;20155;-63
2023/09/24 14:12:35;;;;;;;5.53;1.23;;;;;;;;;;5029114;28;20040;-63
2023/09/24 14:15:03;;;;;;;4.50;1.10;;;;;;;;;;5071119;28;20093;-63
2023/09/24 14:17:29;;;;;;;2.70;1.20;;;;;;;;;;5058326;28;20048;-63
2023/09/24 14:19:55;;;;;;;4.47;1.25;;;;;;;;;;5052189;28;20089;-63
2023/09/24 14:22:22;;;;;;;3.13;1.10;;;;;;;;;;5071213;28;20121;-63
2023/09/24 14:24:48;;;;;;;2.90;1.20;;;;;;;;;;5070825;28;20044;-63
2023/09/24 14:27:14;;;;;;;3.80;0.95;;;;;;;;;;5064139;28;20128;-63
2023/09/24 14:29:40;;;;;;;3.22;1.23;;;;;;;;;;5071381;28;20044;-63
2023/09/24 14:32:06;;;;;;;3.72;1.65;;;;;;;;;;5071279;28;20048;-63
2023/09/24 14:34:32;;;;;;;3.53;1.52;;;;;;;;;;5070232;28;20048;-63
2023/09/24 14:36:58;;;;;;;5.60;1.50;;;;;;;;;;5070768;28;20043;-63
2023/09/24 14:39:24;;;;;;;3.90;1.30;;;;;;;;;;5071012;28;20040;-63
2023/09/24 14:41:50;;;;;;;5.35;1.45;;;;;;;;;;5070280;28;20032;-63